This is the latest recevied weather packets stored in our database for station/object SQ8AQL-16. If no packets are shown the sender has not sent any weather packets the latest 10 day(s).
| Time | Temp. | Humidity | Pressure | Rain* | Wind** | Luminosity | Snow |
|---|---|---|---|---|---|---|---|
| 1778061093 | 25.56° C | 31% | 1008.7 hPa | - | - | 707 W/m² | - |
| 1778060192 | 23.33° C | 36% | 1008.8 hPa | - | - | 44 W/m² | - |
| 1778059291 | 23.33° C | 36% | 1009 hPa | - | - | 44 W/m² | - |
| 1778058390 | 23.33° C | 36% | 1009.1 hPa | - | - | 44 W/m² | - |
| 1778056588 | 22.22° C | 38% | 1008.9 hPa | - | - | 32 W/m² | - |
| 1778055687 | 22.22° C | 38% | 1008.8 hPa | - | - | 31 W/m² | - |
| 1778054786 | 21.67° C | 38% | 1008.8 hPa | - | - | 27 W/m² | - |
| 1778053885 | 21.11° C | 38% | 1008.9 hPa | - | - | 25 W/m² | - |
| 1778052984 | 21.11° C | 38% | 1008.8 hPa | - | - | 25 W/m² | - |
| 1778052083 | 20.56° C | 39% | 1008.7 hPa | - | - | 32 W/m² | - |
| 1778051182 | 20.56° C | 40% | 1008.9 hPa | - | - | 27 W/m² | - |
| 1778050281 | 20.56° C | 40% | 1008.7 hPa | - | - | 32 W/m² | - |
| 1778049379 | 20.56° C | 41% | 1008.6 hPa | - | - | 43 W/m² | - |
| 1778048478 | 18.89° C | 45% | 1008.5 hPa | - | - | 34 W/m² | - |
| 1778047577 | 18.89° C | 45% | 1008.5 hPa | - | - | 34 W/m² | - |
| 1778046675 | 18.89° C | 45% | 1008.6 hPa | - | - | 34 W/m² | - |
| 1778045774 | 18.89° C | 45% | 1008.5 hPa | - | - | 34 W/m² | - |
| 1778044874 | 18.89° C | 44% | 1008.5 hPa | - | - | 32 W/m² | - |
| 1778043972 | 17.22° C | 48% | 1008.5 hPa | - | - | 16 W/m² | - |
| 1778043071 | 17.22° C | 48% | 1008.7 hPa | - | - | 16 W/m² | - |
| 1778042169 | 16.67° C | 47% | 1008.8 hPa | - | - | 11 W/m² | - |
| 1778041268 | 16.11° C | 44% | 1008.8 hPa | - | - | 18 W/m² | - |
| 1778040368 | 16.11° C | 45% | 1008.8 hPa | - | - | 25 W/m² | - |
| 1778039467 | 15.56° C | 45% | 1008.7 hPa | - | - | 9 W/m² | - |
| 1778038566 | 15.56° C | 45% | 1008.7 hPa | - | - | 9 W/m² | - |
* Rain since midnight (hover to see other rain measurements)
** Current wind speed in m/s (hover to see current wind gust speed)